sensor_id;sensor_type;location;lat;lon;timestamp;P1;durP1;ratioP1;P2;durP2;ratioP2
39958;SDS011;25639;53.634;9.880;2023-02-08T00:00:39;58.97;;;25.23;;
39958;SDS011;25639;53.634;9.880;2023-02-08T00:03:04;55.42;;;24.52;;
39958;SDS011;25639;53.634;9.880;2023-02-08T00:05:30;67.13;;;26.48;;
39958;SDS011;25639;53.634;9.880;2023-02-08T00:07:55;63.83;;;25.25;;
39958;SDS011;25639;53.634;9.880;2023-02-08T00:10:21;69.05;;;26.50;;
39958;SDS011;25639;53.634;9.880;2023-02-08T00:12:46;64.15;;;26.15;;
39958;SDS011;25639;53.634;9.880;2023-02-08T00:15:11;59.83;;;25.17;;
39958;SDS011;25639;53.634;9.880;2023-02-08T00:17:37;60.22;;;25.63;;
39958;SDS011;25639;53.634;9.880;2023-02-08T00:20:03;63.28;;;27.08;;
39958;SDS011;25639;53.634;9.880;2023-02-08T00:22:28;59.05;;;26.02;;
39958;SDS011;25639;53.634;9.880;2023-02-08T00:24:53;57.92;;;25.55;;
39958;SDS011;25639;53.634;9.880;2023-02-08T00:27:19;63.35;;;24.13;;
39958;SDS011;25639;53.634;9.880;2023-02-08T00:29:45;56.15;;;23.20;;
39958;SDS011;25639;53.634;9.880;2023-02-08T00:32:11;55.85;;;23.98;;
39958;SDS011;25639;53.634;9.880;2023-02-08T00:34:36;61.75;;;24.05;;
39958;SDS011;25639;53.634;9.880;2023-02-08T00:37:02;51.72;;;22.55;;
39958;SDS011;25639;53.634;9.880;2023-02-08T00:39:28;57.65;;;23.55;;
39958;SDS011;25639;53.634;9.880;2023-02-08T00:41:54;57.50;;;24.35;;
39958;SDS011;25639;53.634;9.880;2023-02-08T00:44:19;51.88;;;22.52;;
39958;SDS011;25639;53.634;9.880;2023-02-08T00:46:44;54.28;;;22.80;;
39958;SDS011;25639;53.634;9.880;2023-02-08T00:49:10;57.42;;;23.02;;
39958;SDS011;25639;53.634;9.880;2023-02-08T00:51:35;48.38;;;20.92;;
39958;SDS011;25639;53.634;9.880;2023-02-08T00:54:00;49.80;;;20.63;;
39958;SDS011;25639;53.634;9.880;2023-02-08T00:56:26;44.28;;;20.02;;
39958;SDS011;25639;53.634;9.880;2023-02-08T00:58:51;52.72;;;21.80;;
39958;SDS011;25639;53.634;9.880;2023-02-08T01:01:17;51.90;;;21.73;;
39958;SDS011;25639;53.634;9.880;2023-02-08T01:03:42;45.15;;;19.63;;
39958;SDS011;25639;53.634;9.880;2023-02-08T01:06:11;47.35;;;20.52;;
39958;SDS011;25639;53.634;9.880;2023-02-08T01:08:39;50.45;;;22.25;;
39958;SDS011;25639;53.634;9.880;2023-02-08T01:11:05;46.03;;;20.75;;
39958;SDS011;25639;53.634;9.880;2023-02-08T01:13:32;40.50;;;18.40;;
39958;SDS011;25639;53.634;9.880;2023-02-08T01:16:11;46.53;;;19.02;;
39958;SDS011;25639;53.634;9.880;2023-02-08T01:18:40;48.55;;;19.10;;
39958;SDS011;25639;53.634;9.880;2023-02-08T01:21:09;47.55;;;21.33;;
39958;SDS011;25639;53.634;9.880;2023-02-08T01:23:36;44.47;;;19.10;;
39958;SDS011;25639;53.634;9.880;2023-02-08T01:26:03;44.33;;;19.45;;
39958;SDS011;25639;53.634;9.880;2023-02-08T01:28:28;45.70;;;18.55;;
39958;SDS011;25639;53.634;9.880;2023-02-08T01:30:54;45.60;;;20.85;;
39958;SDS011;25639;53.634;9.880;2023-02-08T01:33:19;46.25;;;19.75;;
39958;SDS011;25639;53.634;9.880;2023-02-08T01:35:45;47.70;;;18.98;;
39958;SDS011;25639;53.634;9.880;2023-02-08T01:38:14;48.78;;;19.70;;
39958;SDS011;25639;53.634;9.880;2023-02-08T01:40:39;46.97;;;19.35;;
39958;SDS011;25639;53.634;9.880;2023-02-08T01:43:10;48.40;;;20.88;;
39958;SDS011;25639;53.634;9.880;2023-02-08T01:45:44;44.05;;;18.92;;
39958;SDS011;25639;53.634;9.880;2023-02-08T01:48:11;44.95;;;19.80;;
39958;SDS011;25639;53.634;9.880;2023-02-08T01:53:19;44.42;;;19.38;;
39958;SDS011;25639;53.634;9.880;2023-02-08T01:55:47;48.10;;;21.38;;
39958;SDS011;25639;53.634;9.880;2023-02-08T01:58:15;47.60;;;19.30;;
39958;SDS011;25639;53.634;9.880;2023-02-08T02:00:43;47.53;;;20.15;;
39958;SDS011;25639;53.634;9.880;2023-02-08T02:03:09;48.22;;;21.45;;
39958;SDS011;25639;53.634;9.880;2023-02-08T02:05:38;44.58;;;19.58;;
39958;SDS011;25639;53.634;9.880;2023-02-08T02:08:09;43.72;;;18.65;;
39958;SDS011;25639;53.634;9.880;2023-02-08T02:10:37;46.30;;;19.52;;
39958;SDS011;25639;53.634;9.880;2023-02-08T02:13:11;43.03;;;18.70;;
39958;SDS011;25639;53.634;9.880;2023-02-08T02:15:41;51.05;;;20.45;;
39958;SDS011;25639;53.634;9.880;2023-02-08T02:18:10;49.40;;;21.70;;
39958;SDS011;25639;53.634;9.880;2023-02-08T02:26:16;49.70;;;20.73;;
39958;SDS011;25639;53.634;9.880;2023-02-08T02:34:38;48.72;;;19.13;;
39958;SDS011;25639;53.634;9.880;2023-02-08T02:37:18;49.00;;;19.42;;
39958;SDS011;25639;53.634;9.880;2023-02-08T02:40:15;47.65;;;19.95;;
39958;SDS011;25639;53.634;9.880;2023-02-08T02:42:51;49.60;;;19.90;;
39958;SDS011;25639;53.634;9.880;2023-02-08T02:56:39;47.80;;;18.98;;
39958;SDS011;25639;53.634;9.880;2023-02-08T02:59:08;46.40;;;19.73;;
39958;SDS011;25639;53.634;9.880;2023-02-08T03:01:36;40.75;;;17.35;;
39958;SDS011;25639;53.634;9.880;2023-02-08T03:04:18;45.25;;;19.23;;
39958;SDS011;25639;53.634;9.880;2023-02-08T03:07:12;52.22;;;19.70;;
39958;SDS011;25639;53.634;9.880;2023-02-08T03:09:51;41.40;;;18.90;;
39958;SDS011;25639;53.634;9.880;2023-02-08T03:21:08;51.43;;;20.73;;
39958;SDS011;25639;53.634;9.880;2023-02-08T03:23:42;45.75;;;19.95;;
39958;SDS011;25639;53.634;9.880;2023-02-08T03:26:30;47.40;;;19.25;;
39958;SDS011;25639;53.634;9.880;2023-02-08T03:32:01;50.90;;;18.90;;
39958;SDS011;25639;53.634;9.880;2023-02-08T03:37:29;48.78;;;20.55;;
39958;SDS011;25639;53.634;9.880;2023-02-08T03:40:00;50.92;;;20.15;;
39958;SDS011;25639;53.634;9.880;2023-02-08T03:42:30;47.10;;;19.58;;
39958;SDS011;25639;53.634;9.880;2023-02-08T03:45:05;48.90;;;20.25;;
39958;SDS011;25639;53.634;9.880;2023-02-08T03:47:38;44.90;;;19.48;;
39958;SDS011;25639;53.634;9.880;2023-02-08T03:50:07;48.42;;;19.70;;
39958;SDS011;25639;53.634;9.880;2023-02-08T03:52:34;51.60;;;20.30;;
39958;SDS011;25639;53.634;9.880;2023-02-08T03:55:05;50.25;;;20.77;;
39958;SDS011;25639;53.634;9.880;2023-02-08T03:57:37;47.78;;;20.48;;
39958;SDS011;25639;53.634;9.880;2023-02-08T04:00:12;42.85;;;18.80;;
39958;SDS011;25639;53.634;9.880;2023-02-08T04:02:42;45.47;;;19.90;;
39958;SDS011;25639;53.634;9.880;2023-02-08T04:05:13;45.08;;;19.25;;
39958;SDS011;25639;53.634;9.880;2023-02-08T04:07:39;42.92;;;19.02;;
39958;SDS011;25639;53.634;9.880;2023-02-08T04:10:04;38.35;;;17.20;;
39958;SDS011;25639;53.634;9.880;2023-02-08T04:12:30;45.63;;;17.92;;
39958;SDS011;25639;53.634;9.880;2023-02-08T04:14:55;40.67;;;18.02;;
39958;SDS011;25639;53.634;9.880;2023-02-08T04:17:21;41.65;;;19.05;;
39958;SDS011;25639;53.634;9.880;2023-02-08T04:19:46;59.33;;;21.10;;
39958;SDS011;25639;53.634;9.880;2023-02-08T04:22:11;57.50;;;21.58;;
39958;SDS011;25639;53.634;9.880;2023-02-08T04:24:37;52.97;;;22.63;;
39958;SDS011;25639;53.634;9.880;2023-02-08T04:27:02;60.22;;;25.00;;
39958;SDS011;25639;53.634;9.880;2023-02-08T04:29:28;61.60;;;24.10;;
39958;SDS011;25639;53.634;9.880;2023-02-08T04:31:53;62.42;;;23.55;;
39958;SDS011;25639;53.634;9.880;2023-02-08T04:34:18;63.67;;;24.67;;
39958;SDS011;25639;53.634;9.880;2023-02-08T04:36:44;63.35;;;25.40;;
39958;SDS011;25639;53.634;9.880;2023-02-08T04:39:09;59.70;;;24.27;;
39958;SDS011;25639;53.634;9.880;2023-02-08T04:41:34;62.33;;;23.08;;
39958;SDS011;25639;53.634;9.880;2023-02-08T04:44:00;58.03;;;23.52;;
39958;SDS011;25639;53.634;9.880;2023-02-08T04:46:25;55.78;;;22.15;;
39958;SDS011;25639;53.634;9.880;2023-02-08T04:48:50;56.67;;;23.02;;
39958;SDS011;25639;53.634;9.880;2023-02-08T04:51:15;56.42;;;23.60;;
39958;SDS011;25639;53.634;9.880;2023-02-08T04:53:41;63.65;;;24.08;;
39958;SDS011;25639;53.634;9.880;2023-02-08T04:56:06;58.53;;;23.75;;
39958;SDS011;25639;53.634;9.880;2023-02-08T04:58:31;61.10;;;24.45;;
39958;SDS011;25639;53.634;9.880;2023-02-08T05:00:57;58.35;;;23.77;;
39958;SDS011;25639;53.634;9.880;2023-02-08T05:03:22;60.75;;;24.90;;
39958;SDS011;25639;53.634;9.880;2023-02-08T05:05:55;61.30;;;25.17;;
39958;SDS011;25639;53.634;9.880;2023-02-08T05:08:21;60.63;;;23.80;;
39958;SDS011;25639;53.634;9.880;2023-02-08T05:10:46;60.72;;;24.75;;
39958;SDS011;25639;53.634;9.880;2023-02-08T05:13:12;67.85;;;26.17;;
39958;SDS011;25639;53.634;9.880;2023-02-08T05:15:37;62.78;;;26.13;;
39958;SDS011;25639;53.634;9.880;2023-02-08T05:18:02;66.57;;;24.70;;
39958;SDS011;25639;53.634;9.880;2023-02-08T05:20:28;67.35;;;25.38;;
39958;SDS011;25639;53.634;9.880;2023-02-08T05:22:54;63.83;;;26.45;;
39958;SDS011;25639;53.634;9.880;2023-02-08T05:25:19;69.82;;;25.58;;
39958;SDS011;25639;53.634;9.880;2023-02-08T05:27:45;64.15;;;25.33;;
39958;SDS011;25639;53.634;9.880;2023-02-08T05:30:10;67.72;;;25.92;;
39958;SDS011;25639;53.634;9.880;2023-02-08T05:32:35;62.75;;;24.92;;
39958;SDS011;25639;53.634;9.880;2023-02-08T05:35:01;68.85;;;26.05;;
39958;SDS011;25639;53.634;9.880;2023-02-08T05:37:26;67.15;;;27.92;;
39958;SDS011;25639;53.634;9.880;2023-02-08T05:39:51;77.50;;;27.60;;
39958;SDS011;25639;53.634;9.880;2023-02-08T05:42:17;84.43;;;28.67;;
39958;SDS011;25639;53.634;9.880;2023-02-08T05:44:42;76.43;;;26.83;;
39958;SDS011;25639;53.634;9.880;2023-02-08T05:47:07;67.47;;;26.10;;
39958;SDS011;25639;53.634;9.880;2023-02-08T05:49:32;75.78;;;26.80;;
39958;SDS011;25639;53.634;9.880;2023-02-08T05:51:58;92.03;;;28.83;;
39958;SDS011;25639;53.634;9.880;2023-02-08T05:54:23;78.95;;;29.23;;
39958;SDS011;25639;53.634;9.880;2023-02-08T05:56:48;76.88;;;27.73;;
39958;SDS011;25639;53.634;9.880;2023-02-08T05:59:14;72.63;;;28.45;;
39958;SDS011;25639;53.634;9.880;2023-02-08T06:01:39;80.57;;;29.35;;
39958;SDS011;25639;53.634;9.880;2023-02-08T06:04:04;73.00;;;28.20;;
39958;SDS011;25639;53.634;9.880;2023-02-08T06:06:30;77.22;;;26.77;;
39958;SDS011;25639;53.634;9.880;2023-02-08T06:08:55;76.07;;;28.60;;
39958;SDS011;25639;53.634;9.880;2023-02-08T06:11:20;73.95;;;28.45;;
39958;SDS011;25639;53.634;9.880;2023-02-08T06:13:46;77.03;;;28.98;;
39958;SDS011;25639;53.634;9.880;2023-02-08T06:16:12;88.22;;;29.63;;
39958;SDS011;25639;53.634;9.880;2023-02-08T06:18:37;80.65;;;28.23;;
39958;SDS011;25639;53.634;9.880;2023-02-08T06:21:03;75.22;;;27.75;;
39958;SDS011;25639;53.634;9.880;2023-02-08T06:23:29;68.25;;;27.08;;
39958;SDS011;25639;53.634;9.880;2023-02-08T06:25:54;75.47;;;28.05;;
39958;SDS011;25639;53.634;9.880;2023-02-08T06:28:19;70.93;;;27.95;;
39958;SDS011;25639;53.634;9.880;2023-02-08T06:30:45;70.63;;;27.52;;
39958;SDS011;25639;53.634;9.880;2023-02-08T06:33:10;73.85;;;27.58;;
39958;SDS011;25639;53.634;9.880;2023-02-08T06:35:35;72.03;;;27.70;;
39958;SDS011;25639;53.634;9.880;2023-02-08T06:38:00;74.68;;;28.52;;
39958;SDS011;25639;53.634;9.880;2023-02-08T06:40:26;74.22;;;27.67;;
39958;SDS011;25639;53.634;9.880;2023-02-08T06:42:51;76.28;;;27.98;;
39958;SDS011;25639;53.634;9.880;2023-02-08T06:45:16;73.65;;;28.08;;
39958;SDS011;25639;53.634;9.880;2023-02-08T06:47:42;68.15;;;26.48;;
39958;SDS011;25639;53.634;9.880;2023-02-08T06:50:08;75.03;;;27.98;;
39958;SDS011;25639;53.634;9.880;2023-02-08T06:52:34;72.13;;;28.00;;
39958;SDS011;25639;53.634;9.880;2023-02-08T06:54:59;74.35;;;28.27;;
39958;SDS011;25639;53.634;9.880;2023-02-08T06:57:25;78.57;;;28.17;;
39958;SDS011;25639;53.634;9.880;2023-02-08T06:59:50;78.78;;;28.10;;
39958;SDS011;25639;53.634;9.880;2023-02-08T07:02:16;72.00;;;27.65;;
39958;SDS011;25639;53.634;9.880;2023-02-08T07:04:43;82.47;;;28.33;;
39958;SDS011;25639;53.634;9.880;2023-02-08T07:07:10;71.18;;;26.90;;
39958;SDS011;25639;53.634;9.880;2023-02-08T07:09:36;78.70;;;27.50;;
39958;SDS011;25639;53.634;9.880;2023-02-08T07:12:01;80.70;;;27.38;;
39958;SDS011;25639;53.634;9.880;2023-02-08T07:14:33;81.30;;;28.65;;
39958;SDS011;25639;53.634;9.880;2023-02-08T07:17:01;75.90;;;27.13;;
39958;SDS011;25639;53.634;9.880;2023-02-08T07:19:27;75.32;;;26.15;;
39958;SDS011;25639;53.634;9.880;2023-02-08T07:21:52;79.20;;;27.48;;
39958;SDS011;25639;53.634;9.880;2023-02-08T07:24:18;78.70;;;27.20;;
39958;SDS011;25639;53.634;9.880;2023-02-08T07:26:43;80.30;;;27.70;;
39958;SDS011;25639;53.634;9.880;2023-02-08T07:29:08;80.97;;;27.67;;
39958;SDS011;25639;53.634;9.880;2023-02-08T07:31:34;75.90;;;27.52;;
39958;SDS011;25639;53.634;9.880;2023-02-08T07:33:59;74.07;;;27.02;;
39958;SDS011;25639;53.634;9.880;2023-02-08T07:36:24;72.97;;;28.52;;
39958;SDS011;25639;53.634;9.880;2023-02-08T07:38:49;75.68;;;26.65;;
39958;SDS011;25639;53.634;9.880;2023-02-08T07:41:15;69.95;;;26.83;;
39958;SDS011;25639;53.634;9.880;2023-02-08T07:43:40;75.03;;;28.42;;
39958;SDS011;25639;53.634;9.880;2023-02-08T07:46:17;73.93;;;25.75;;
39958;SDS011;25639;53.634;9.880;2023-02-08T07:48:44;72.32;;;25.90;;
39958;SDS011;25639;53.634;9.880;2023-02-08T07:51:10;75.05;;;27.70;;
39958;SDS011;25639;53.634;9.880;2023-02-08T07:53:37;83.22;;;29.42;;
39958;SDS011;25639;53.634;9.880;2023-02-08T07:56:03;69.65;;;26.80;;
39958;SDS011;25639;53.634;9.880;2023-02-08T07:58:28;80.15;;;27.20;;
39958;SDS011;25639;53.634;9.880;2023-02-08T08:00:54;80.85;;;28.17;;
39958;SDS011;25639;53.634;9.880;2023-02-08T08:03:19;74.80;;;27.35;;
39958;SDS011;25639;53.634;9.880;2023-02-08T08:05:45;72.80;;;26.65;;
39958;SDS011;25639;53.634;9.880;2023-02-08T08:08:10;77.47;;;28.50;;
39958;SDS011;25639;53.634;9.880;2023-02-08T08:10:37;74.13;;;27.00;;
39958;SDS011;25639;53.634;9.880;2023-02-08T08:13:02;79.05;;;27.90;;
39958;SDS011;25639;53.634;9.880;2023-02-08T08:15:28;70.68;;;26.08;;
39958;SDS011;25639;53.634;9.880;2023-02-08T08:17:53;74.78;;;27.10;;
39958;SDS011;25639;53.634;9.880;2023-02-08T08:20:19;66.05;;;24.65;;
39958;SDS011;25639;53.634;9.880;2023-02-08T08:22:44;69.35;;;25.42;;
39958;SDS011;25639;53.634;9.880;2023-02-08T08:25:10;71.20;;;26.67;;
39958;SDS011;25639;53.634;9.880;2023-02-08T08:27:35;67.60;;;25.90;;
39958;SDS011;25639;53.634;9.880;2023-02-08T08:30:01;71.63;;;26.92;;
39958;SDS011;25639;53.634;9.880;2023-02-08T08:32:27;68.22;;;25.27;;
39958;SDS011;25639;53.634;9.880;2023-02-08T08:34:52;69.47;;;24.58;;
39958;SDS011;25639;53.634;9.880;2023-02-08T08:37:18;73.38;;;25.73;;
39958;SDS011;25639;53.634;9.880;2023-02-08T08:39:43;73.25;;;26.85;;
39958;SDS011;25639;53.634;9.880;2023-02-08T08:42:08;69.63;;;26.00;;
39958;SDS011;25639;53.634;9.880;2023-02-08T08:44:34;70.45;;;26.20;;
39958;SDS011;25639;53.634;9.880;2023-02-08T08:47:00;63.78;;;25.55;;
39958;SDS011;25639;53.634;9.880;2023-02-08T08:49:26;66.40;;;25.67;;
39958;SDS011;25639;53.634;9.880;2023-02-08T08:51:52;69.80;;;25.23;;
39958;SDS011;25639;53.634;9.880;2023-02-08T08:54:18;68.22;;;25.75;;
39958;SDS011;25639;53.634;9.880;2023-02-08T08:56:44;69.05;;;25.63;;
39958;SDS011;25639;53.634;9.880;2023-02-08T08:59:10;65.90;;;25.92;;
39958;SDS011;25639;53.634;9.880;2023-02-08T09:01:35;62.20;;;24.45;;
39958;SDS011;25639;53.634;9.880;2023-02-08T09:04:01;69.20;;;25.45;;
39958;SDS011;25639;53.634;9.880;2023-02-08T09:06:26;66.60;;;24.23;;
39958;SDS011;25639;53.634;9.880;2023-02-08T09:08:52;58.90;;;22.27;;
39958;SDS011;25639;53.634;9.880;2023-02-08T09:11:17;52.63;;;20.52;;
39958;SDS011;25639;53.634;9.880;2023-02-08T09:13:43;59.75;;;21.52;;
39958;SDS011;25639;53.634;9.880;2023-02-08T09:16:09;55.03;;;22.40;;
39958;SDS011;25639;53.634;9.880;2023-02-08T09:18:38;57.92;;;21.85;;
39958;SDS011;25639;53.634;9.880;2023-02-08T09:21:11;56.25;;;21.48;;
39958;SDS011;25639;53.634;9.880;2023-02-08T09:26:03;58.95;;;20.73;;
39958;SDS011;25639;53.634;9.880;2023-02-08T09:28:31;53.33;;;20.48;;
39958;SDS011;25639;53.634;9.880;2023-02-08T09:30:56;57.45;;;21.40;;
39958;SDS011;25639;53.634;9.880;2023-02-08T09:33:23;54.35;;;21.25;;
39958;SDS011;25639;53.634;9.880;2023-02-08T09:35:48;66.82;;;22.83;;
39958;SDS011;25639;53.634;9.880;2023-02-08T09:38:13;53.83;;;20.80;;
39958;SDS011;25639;53.634;9.880;2023-02-08T09:40:48;55.00;;;22.02;;
39958;SDS011;25639;53.634;9.880;2023-02-08T09:43:44;55.20;;;21.38;;
39958;SDS011;25639;53.634;9.880;2023-02-08T09:46:22;58.83;;;21.10;;
39958;SDS011;25639;53.634;9.880;2023-02-08T09:48:53;53.97;;;20.65;;
39958;SDS011;25639;53.634;9.880;2023-02-08T09:51:35;57.13;;;21.23;;
39958;SDS011;25639;53.634;9.880;2023-02-08T09:54:18;50.97;;;19.20;;
39958;SDS011;25639;53.634;9.880;2023-02-08T09:56:46;55.63;;;20.98;;
39958;SDS011;25639;53.634;9.880;2023-02-08T09:59:18;54.20;;;20.70;;
39958;SDS011;25639;53.634;9.880;2023-02-08T10:01:51;56.63;;;21.13;;
39958;SDS011;25639;53.634;9.880;2023-02-08T10:04:24;55.22;;;20.40;;
39958;SDS011;25639;53.634;9.880;2023-02-08T10:07:00;58.85;;;21.15;;
39958;SDS011;25639;53.634;9.880;2023-02-08T10:09:25;50.38;;;20.08;;
39958;SDS011;25639;53.634;9.880;2023-02-08T10:25:45;52.47;;;19.38;;
39958;SDS011;25639;53.634;9.880;2023-02-08T10:28:43;52.47;;;20.80;;
39958;SDS011;25639;53.634;9.880;2023-02-08T10:36:45;59.58;;;20.15;;
39958;SDS011;25639;53.634;9.880;2023-02-08T10:39:18;56.33;;;20.60;;
39958;SDS011;25639;53.634;9.880;2023-02-08T10:41:49;51.13;;;19.55;;
39958;SDS011;25639;53.634;9.880;2023-02-08T10:44:21;45.55;;;18.42;;
39958;SDS011;25639;53.634;9.880;2023-02-08T10:47:09;45.55;;;17.80;;
39958;SDS011;25639;53.634;9.880;2023-02-08T10:49:49;61.22;;;20.40;;
39958;SDS011;25639;53.634;9.880;2023-02-08T10:52:21;56.25;;;21.10;;
39958;SDS011;25639;53.634;9.880;2023-02-08T10:54:47;51.38;;;20.50;;
39958;SDS011;25639;53.634;9.880;2023-02-08T10:57:13;56.92;;;20.08;;
39958;SDS011;25639;53.634;9.880;2023-02-08T10:59:50;52.92;;;21.15;;
39958;SDS011;25639;53.634;9.880;2023-02-08T11:02:20;48.40;;;19.17;;
39958;SDS011;25639;53.634;9.880;2023-02-08T11:05:01;50.22;;;19.77;;
39958;SDS011;25639;53.634;9.880;2023-02-08T11:07:27;58.45;;;20.45;;
39958;SDS011;25639;53.634;9.880;2023-02-08T11:09:53;53.55;;;20.38;;
39958;SDS011;25639;53.634;9.880;2023-02-08T11:12:19;51.90;;;20.13;;
39958;SDS011;25639;53.634;9.880;2023-02-08T11:14:47;47.45;;;18.45;;
39958;SDS011;25639;53.634;9.880;2023-02-08T11:17:25;49.95;;;17.48;;
39958;SDS011;25639;53.634;9.880;2023-02-08T11:19:57;48.55;;;19.42;;
39958;SDS011;25639;53.634;9.880;2023-02-08T11:22:23;49.42;;;18.95;;
39958;SDS011;25639;53.634;9.880;2023-02-08T11:24:56;58.08;;;20.65;;
39958;SDS011;25639;53.634;9.880;2023-02-08T11:32:39;57.10;;;19.42;;
39958;SDS011;25639;53.634;9.880;2023-02-08T11:35:18;46.85;;;18.95;;
39958;SDS011;25639;53.634;9.880;2023-02-08T11:37:51;49.08;;;19.65;;
39958;SDS011;25639;53.634;9.880;2023-02-08T11:40:22;50.00;;;19.63;;
39958;SDS011;25639;53.634;9.880;2023-02-08T11:42:50;58.72;;;19.85;;
39958;SDS011;25639;53.634;9.880;2023-02-08T11:45:49;51.75;;;20.70;;
39958;SDS011;25639;53.634;9.880;2023-02-08T11:48:17;54.33;;;20.00;;
39958;SDS011;25639;53.634;9.880;2023-02-08T11:50:46;51.90;;;19.55;;
39958;SDS011;25639;53.634;9.880;2023-02-08T11:53:19;54.67;;;20.33;;
39958;SDS011;25639;53.634;9.880;2023-02-08T11:56:14;51.38;;;19.60;;
39958;SDS011;25639;53.634;9.880;2023-02-08T11:58:59;49.65;;;20.65;;
39958;SDS011;25639;53.634;9.880;2023-02-08T12:01:35;53.58;;;19.98;;
39958;SDS011;25639;53.634;9.880;2023-02-08T12:04:11;48.92;;;18.23;;
39958;SDS011;25639;53.634;9.880;2023-02-08T12:10:28;63.90;;;27.13;;
39958;SDS011;25639;53.634;9.880;2023-02-08T12:16:09;56.20;;;20.67;;
39958;SDS011;25639;53.634;9.880;2023-02-08T12:26:19;43.78;;;18.70;;
39958;SDS011;25639;53.634;9.880;2023-02-08T12:28:55;47.83;;;18.52;;
39958;SDS011;25639;53.634;9.880;2023-02-08T12:36:42;46.33;;;18.17;;
39958;SDS011;25639;53.634;9.880;2023-02-08T12:42:58;49.78;;;19.20;;
39958;SDS011;25639;53.634;9.880;2023-02-08T12:53:49;47.25;;;18.15;;
39958;SDS011;25639;53.634;9.880;2023-02-08T12:56:20;37.63;;;16.88;;
39958;SDS011;25639;53.634;9.880;2023-02-08T12:58:50;47.35;;;16.92;;
39958;SDS011;25639;53.634;9.880;2023-02-08T13:01:19;42.55;;;17.20;;
39958;SDS011;25639;53.634;9.880;2023-02-08T13:06:25;47.63;;;17.17;;
39958;SDS011;25639;53.634;9.880;2023-02-08T13:14:33;39.05;;;15.90;;
39958;SDS011;25639;53.634;9.880;2023-02-08T13:17:03;47.70;;;15.40;;
39958;SDS011;25639;53.634;9.880;2023-02-08T13:19:59;48.83;;;16.10;;
39958;SDS011;25639;53.634;9.880;2023-02-08T13:22:29;40.60;;;14.75;;
39958;SDS011;25639;53.634;9.880;2023-02-08T13:24:58;39.05;;;15.68;;
39958;SDS011;25639;53.634;9.880;2023-02-08T13:27:26;41.00;;;15.30;;
39958;SDS011;25639;53.634;9.880;2023-02-08T13:29:51;36.22;;;15.30;;
39958;SDS011;25639;53.634;9.880;2023-02-08T13:32:19;37.90;;;14.02;;
39958;SDS011;25639;53.634;9.880;2023-02-08T13:34:53;39.15;;;14.00;;
39958;SDS011;25639;53.634;9.880;2023-02-08T13:37:23;43.47;;;15.13;;
39958;SDS011;25639;53.634;9.880;2023-02-08T13:39:59;36.30;;;14.40;;
39958;SDS011;25639;53.634;9.880;2023-02-08T13:42:29;33.00;;;13.63;;
39958;SDS011;25639;53.634;9.880;2023-02-08T13:44:58;32.72;;;13.00;;
39958;SDS011;25639;53.634;9.880;2023-02-08T13:47:26;40.88;;;14.38;;
39958;SDS011;25639;53.634;9.880;2023-02-08T13:49:56;33.15;;;13.50;;
39958;SDS011;25639;53.634;9.880;2023-02-08T13:58:34;37.20;;;13.68;;
39958;SDS011;25639;53.634;9.880;2023-02-08T14:03:29;33.65;;;14.27;;
39958;SDS011;25639;53.634;9.880;2023-02-08T14:14:31;30.98;;;12.10;;
39958;SDS011;25639;53.634;9.880;2023-02-08T14:17:21;32.33;;;12.52;;
39958;SDS011;25639;53.634;9.880;2023-02-08T14:20:36;26.67;;;11.43;;
39958;SDS011;25639;53.634;9.880;2023-02-08T14:22:51;29.80;;;11.90;;
39958;SDS011;25639;53.634;9.880;2023-02-08T14:25:19;25.77;;;10.63;;
39958;SDS011;25639;53.634;9.880;2023-02-08T14:27:49;29.70;;;10.90;;
39958;SDS011;25639;53.634;9.880;2023-02-08T14:30:20;30.45;;;10.68;;
39958;SDS011;25639;53.634;9.880;2023-02-08T14:33:07;30.20;;;11.50;;
39958;SDS011;25639;53.634;9.880;2023-02-08T14:35:40;28.33;;;11.20;;
39958;SDS011;25639;53.634;9.880;2023-02-08T14:45:44;23.30;;;9.23;;
39958;SDS011;25639;53.634;9.880;2023-02-08T14:48:24;20.48;;;9.30;;
39958;SDS011;25639;53.634;9.880;2023-02-08T14:50:54;24.45;;;8.88;;
39958;SDS011;25639;53.634;9.880;2023-02-08T14:53:38;23.45;;;8.77;;
39958;SDS011;25639;53.634;9.880;2023-02-08T14:56:13;23.52;;;8.73;;
39958;SDS011;25639;53.634;9.880;2023-02-08T14:58:42;25.83;;;9.25;;
39958;SDS011;25639;53.634;9.880;2023-02-08T15:01:26;22.65;;;8.45;;
39958;SDS011;25639;53.634;9.880;2023-02-08T15:04:04;23.10;;;8.13;;
39958;SDS011;25639;53.634;9.880;2023-02-08T15:09:23;22.50;;;9.40;;
39958;SDS011;25639;53.634;9.880;2023-02-08T15:12:01;18.85;;;8.40;;
39958;SDS011;25639;53.634;9.880;2023-02-08T15:14:30;25.83;;;9.32;;
39958;SDS011;25639;53.634;9.880;2023-02-08T15:16:58;19.75;;;8.77;;
39958;SDS011;25639;53.634;9.880;2023-02-08T15:19:31;19.35;;;8.32;;
39958;SDS011;25639;53.634;9.880;2023-02-08T15:22:18;21.13;;;8.63;;
39958;SDS011;25639;53.634;9.880;2023-02-08T15:24:58;23.05;;;9.02;;
39958;SDS011;25639;53.634;9.880;2023-02-08T15:27:44;23.38;;;8.82;;
39958;SDS011;25639;53.634;9.880;2023-02-08T15:30:21;25.88;;;9.43;;
39958;SDS011;25639;53.634;9.880;2023-02-08T15:32:51;28.70;;;9.45;;
39958;SDS011;25639;53.634;9.880;2023-02-08T15:35:18;26.80;;;9.43;;
39958;SDS011;25639;53.634;9.880;2023-02-08T15:37:44;25.80;;;10.48;;
39958;SDS011;25639;53.634;9.880;2023-02-08T15:40:27;25.23;;;10.45;;
39958;SDS011;25639;53.634;9.880;2023-02-08T15:42:55;27.77;;;10.65;;
39958;SDS011;25639;53.634;9.880;2023-02-08T15:45:27;27.15;;;10.70;;
39958;SDS011;25639;53.634;9.880;2023-02-08T15:47:56;25.42;;;10.20;;
39958;SDS011;25639;53.634;9.880;2023-02-08T15:50:22;28.95;;;11.57;;
39958;SDS011;25639;53.634;9.880;2023-02-08T15:52:59;26.25;;;11.23;;
39958;SDS011;25639;53.634;9.880;2023-02-08T15:55:27;34.03;;;11.65;;
39958;SDS011;25639;53.634;9.880;2023-02-08T15:58:05;36.38;;;11.93;;
39958;SDS011;25639;53.634;9.880;2023-02-08T16:00:40;29.60;;;11.20;;
39958;SDS011;25639;53.634;9.880;2023-02-08T16:03:14;33.72;;;13.18;;
39958;SDS011;25639;53.634;9.880;2023-02-08T16:05:51;29.92;;;11.52;;
39958;SDS011;25639;53.634;9.880;2023-02-08T16:08:43;34.67;;;12.55;;
39958;SDS011;25639;53.634;9.880;2023-02-08T16:13:37;39.72;;;17.25;;
39958;SDS011;25639;53.634;9.880;2023-02-08T16:16:23;35.00;;;14.52;;
39958;SDS011;25639;53.634;9.880;2023-02-08T16:19:01;34.95;;;13.95;;
39958;SDS011;25639;53.634;9.880;2023-02-08T16:21:30;36.33;;;13.95;;
39958;SDS011;25639;53.634;9.880;2023-02-08T16:26:39;35.03;;;13.55;;
39958;SDS011;25639;53.634;9.880;2023-02-08T16:32:26;39.92;;;14.35;;
39958;SDS011;25639;53.634;9.880;2023-02-08T16:34:56;38.63;;;14.48;;
39958;SDS011;25639;53.634;9.880;2023-02-08T16:37:24;38.25;;;14.02;;
39958;SDS011;25639;53.634;9.880;2023-02-08T16:39:56;30.92;;;13.55;;
39958;SDS011;25639;53.634;9.880;2023-02-08T16:42:34;35.95;;;14.05;;
39958;SDS011;25639;53.634;9.880;2023-02-08T16:50:06;41.70;;;17.13;;
39958;SDS011;25639;53.634;9.880;2023-02-08T16:52:33;33.22;;;13.23;;
39958;SDS011;25639;53.634;9.880;2023-02-08T16:54:59;33.67;;;13.80;;
39958;SDS011;25639;53.634;9.880;2023-02-08T16:57:41;34.97;;;13.30;;
39958;SDS011;25639;53.634;9.880;2023-02-08T17:00:17;32.20;;;13.15;;
39958;SDS011;25639;53.634;9.880;2023-02-08T17:02:51;31.33;;;12.90;;
39958;SDS011;25639;53.634;9.880;2023-02-08T17:05:17;30.67;;;12.30;;